Time,TemperatureF,DewpointF,PressureIn,WindDirection,WindDirectionDegrees,WindSpeedMPH,WindSpeedGustMPH,Humidity,HourlyPrecipIn,Conditions,Clouds,dailyrainin,SoftwareType,DateUTC
2013-04-28 00:00:00,55.0,44.0,30.30,SW,233,0.0,1.0,67,0.00,,,0.00,weatherlink.com 1.10,2013-04-28 04:00:00,
2013-04-28 00:15:00,54.7,44.0,30.30,SW,233,0.0,0.0,68,0.00,,,0.00,weatherlink.com 1.10,2013-04-28 04:15:00,
2013-04-28 00:30:00,54.4,44.0,30.30,SSE,165,0.0,2.0,68,0.00,,,0.00,weatherlink.com 1.10,2013-04-28 04:30:00,
2013-04-28 00:45:00,54.4,44.0,30.30,SSW,198,0.0,4.0,68,0.00,,,0.00,weatherlink.com 1.10,2013-04-28 04:45:00,
2013-04-28 01:00:00,54.2,44.0,30.30,SSW,198,0.0,0.0,69,0.00,,,0.00,weatherlink.com 1.10,2013-04-28 05:00:00,
2013-04-28 01:15:00,53.9,45.0,30.30,South,190,0.0,1.0,71,0.00,,,0.00,weatherlink.com 1.10,2013-04-28 05:15:00,
2013-04-28 01:30:00,53.9,45.0,30.29,South,190,0.0,1.0,72,0.00,,,0.00,weatherlink.com 1.10,2013-04-28 05:30:00,
2013-04-28 02:00:00,53.8,46.0,30.29,South,173,0.0,0.0,76,0.00,,,0.00,weatherlink.com 1.10,2013-04-28 06:00:00,
2013-04-28 02:15:00,53.6,47.0,30.29,South,173,0.0,0.0,78,0.00,,,0.00,weatherlink.com 1.10,2013-04-28 06:15:00,
2013-04-28 02:30:00,53.8,47.0,30.28,South,173,0.0,1.0,77,0.00,,,0.00,weatherlink.com 1.10,2013-04-28 06:30:00,
2013-04-28 02:45:00,54.1,46.0,30.28,South,173,0.0,1.0,74,0.00,,,0.00,weatherlink.com 1.10,2013-04-28 06:45:00,
2013-04-28 03:00:00,54.1,46.0,30.28,South,173,0.0,0.0,75,0.00,,,0.00,weatherlink.com 1.10,2013-04-28 07:00:00,
2013-04-28 03:15:00,53.6,47.0,30.28,South,173,0.0,0.0,78,0.00,,,0.00,weatherlink.com 1.10,2013-04-28 07:15:00,
2013-04-28 03:30:00,53.0,46.0,30.28,South,173,0.0,0.0,77,0.00,,,0.00,weatherlink.com 1.10,2013-04-28 07:30:00,
2013-04-28 03:45:00,52.6,46.0,30.28,South,173,0.0,0.0,79,0.00,,,0.00,weatherlink.com 1.10,2013-04-28 07:45:00,
2013-04-28 04:00:00,51.7,45.0,30.27,South,173,0.0,0.0,79,0.00,,,0.00,weatherlink.com 1.10,2013-04-28 08:00:00,
2013-04-28 04:15:00,50.7,45.0,30.26,South,173,0.0,0.0,82,0.00,,,0.00,weatherlink.com 1.10,2013-04-28 08:15:00,
2013-04-28 04:31:00,49.9,45.0,30.26,South,173,0.0,0.0,83,0.00,,,0.00,weatherlink.com 1.10,2013-04-28 08:31:00,
2013-04-28 04:46:00,49.2,45.0,30.26,South,173,0.0,0.0,85,0.00,,,0.00,weatherlink.com 1.10,2013-04-28 08:46:00,
2013-04-28 05:01:00,48.9,45.0,30.27,South,173,0.0,0.0,86,0.00,,,0.00,weatherlink.com 1.10,2013-04-28 09:01:00,
2013-04-28 05:16:00,48.7,45.0,30.26,South,173,0.0,0.0,86,0.00,,,0.00,weatherlink.com 1.10,2013-04-28 09:16:00,
2013-04-28 05:31:00,47.9,44.0,30.26,South,173,0.0,0.0,86,0.00,,,0.00,weatherlink.com 1.10,2013-04-28 09:31:00,
2013-04-28 05:46:00,47.7,44.0,30.26,South,173,0.0,0.0,88,0.00,,,0.00,weatherlink.com 1.10,2013-04-28 09:46:00,
2013-04-28 06:01:00,47.4,44.0,30.26,South,173,0.0,0.0,88,0.00,,,0.00,weatherlink.com 1.10,2013-04-28 10:01:00,
2013-04-28 06:16:00,47.4,44.0,30.26,South,173,0.0,0.0,89,0.00,,,0.00,weatherlink.com 1.10,2013-04-28 10:16:00,
2013-04-28 06:31:00,47.6,44.0,30.26,South,173,0.0,0.0,88,0.00,,,0.00,weatherlink.com 1.10,2013-04-28 10:31:00,
2013-04-28 06:46:00,47.2,44.0,30.27,South,173,0.0,0.0,89,0.00,,,0.00,weatherlink.com 1.10,2013-04-28 10:46:00,
2013-04-28 07:01:00,47.5,45.0,30.27,South,173,0.0,0.0,90,0.00,,,0.00,weatherlink.com 1.10,2013-04-28 11:01:00,
2013-04-28 07:16:00,47.9,46.0,30.28,South,173,0.0,0.0,91,0.00,,,0.00,weatherlink.com 1.10,2013-04-28 11:16:00,
2013-04-28 07:31:00,48.9,46.0,30.28,South,173,0.0,0.0,90,0.00,,,0.00,weatherlink.com 1.10,2013-04-28 11:31:00,
2013-04-28 07:46:00,50.3,47.0,30.28,South,173,0.0,0.0,89,0.00,,,0.00,weatherlink.com 1.10,2013-04-28 11:46:00,
2013-04-28 08:01:00,52.8,46.0,30.29,South,179,0.0,2.0,79,0.00,,,0.00,weatherlink.com 1.10,2013-04-28 12:01:00,
2013-04-28 08:16:00,55.1,45.0,30.29,SSE,163,0.0,2.0,70,0.00,,,0.00,weatherlink.com 1.10,2013-04-28 12:16:00,
2013-04-28 08:31:00,56.8,45.0,30.29,SSE,165,1.0,5.0,64,0.00,,,0.00,weatherlink.com 1.10,2013-04-28 12:31:00,
2013-04-28 08:46:00,57.3,45.0,30.29,SSW,196,0.0,4.0,63,0.00,,,0.00,weatherlink.com 1.10,2013-04-28 12:46:00,
2013-04-28 09:01:00,57.9,45.0,30.29,SSE,164,1.0,2.0,63,0.00,,,0.00,weatherlink.com 1.10,2013-04-28 13:01:00,
2013-04-28 09:16:00,58.4,45.0,30.29,South,184,2.0,3.0,62,0.00,,,0.00,weatherlink.com 1.10,2013-04-28 13:16:00,
2013-04-28 09:31:00,59.1,45.0,30.28,SE,144,1.0,3.0,60,0.00,,,0.00,weatherlink.com 1.10,2013-04-28 13:31:00,
2013-04-28 09:46:00,60.1,44.0,30.28,SSE,155,2.0,2.0,56,0.00,,,0.00,weatherlink.com 1.10,2013-04-28 13:46:00,
2013-04-28 10:01:00,60.8,43.0,30.28,East,99,1.0,4.0,52,0.00,,,0.00,weatherlink.com 1.10,2013-04-28 14:01:00,
2013-04-28 10:16:00,62.3,44.0,30.29,SSE,163,0.0,3.0,51,0.00,,,0.00,weatherlink.com 1.10,2013-04-28 14:16:00,
2013-04-28 10:31:00,63.1,45.0,30.29,South,185,1.0,5.0,52,0.00,,,0.00,weatherlink.com 1.10,2013-04-28 14:31:00,
2013-04-28 10:46:00,64.0,44.0,30.29,East,86,1.0,3.0,49,0.00,,,0.00,weatherlink.com 1.10,2013-04-28 14:46:00,
2013-04-28 11:01:00,64.4,46.0,30.29,SSW,196,4.0,4.0,51,0.00,,,0.00,weatherlink.com 1.10,2013-04-28 15:01:00,
2013-04-28 11:16:00,64.7,45.0,30.29,SSE,167,0.0,4.0,49,0.00,,,0.00,weatherlink.com 1.10,2013-04-28 15:16:00,
2013-04-28 11:31:00,65.3,44.0,30.29,South,184,0.0,5.0,46,0.00,,,0.00,weatherlink.com 1.10,2013-04-28 15:31:00,
2013-04-28 11:47:00,65.8,44.0,30.28,SSW,200,1.0,5.0,46,0.00,,,0.00,weatherlink.com 1.10,2013-04-28 15:47:00,
2013-04-28 12:02:00,66.6,44.0,30.28,SSE,167,1.0,4.0,44,0.00,,,0.00,weatherlink.com 1.10,2013-04-28 16:02:00,
2013-04-28 12:17:00,66.8,46.0,30.27,SW,219,3.0,3.0,48,0.00,,,0.00,weatherlink.com 1.10,2013-04-28 16:17:00,
2013-04-28 12:32:00,66.5,46.0,30.27,South,177,2.0,3.0,48,0.00,,,0.00,weatherlink.com 1.10,2013-04-28 16:32:00,
2013-04-28 12:47:00,66.1,46.0,30.26,SSW,192,1.0,5.0,48,0.00,,,0.00,weatherlink.com 1.10,2013-04-28 16:47:00,
2013-04-28 13:02:00,66.6,45.0,30.26,ESE,116,0.0,4.0,46,0.00,,,0.00,weatherlink.com 1.10,2013-04-28 17:02:00,
2013-04-28 13:17:00,67.1,46.0,30.26,South,171,1.0,5.0,47,0.00,,,0.00,weatherlink.com 1.10,2013-04-28 17:17:00,
2013-04-28 13:32:00,65.8,45.0,30.26,South,178,1.0,5.0,48,0.00,,,0.00,weatherlink.com 1.10,2013-04-28 17:32:00,
2013-04-28 13:47:00,65.1,46.0,30.25,SE,138,1.0,4.0,51,0.00,,,0.00,weatherlink.com 1.10,2013-04-28 17:47:00,
2013-04-28 14:02:00,64.2,46.0,30.25,South,184,3.0,5.0,51,0.00,,,0.00,weatherlink.com 1.10,2013-04-28 18:02:00,
2013-04-28 14:17:00,64.0,46.0,30.25,South,186,2.0,3.0,53,0.00,,,0.00,weatherlink.com 1.10,2013-04-28 18:17:00,
2013-04-28 14:32:00,63.7,46.0,30.25,SSE,160,0.0,3.0,52,0.00,,,0.00,weatherlink.com 1.10,2013-04-28 18:32:00,
2013-04-28 14:47:00,63.4,44.0,30.25,SSE,155,1.0,5.0,50,0.00,,,0.00,weatherlink.com 1.10,2013-04-28 18:47:00,
2013-04-28 15:02:00,62.7,43.0,30.24,South,181,0.0,8.0,48,0.00,,,0.00,weatherlink.com 1.10,2013-04-28 19:02:00,
2013-04-28 15:17:00,61.9,42.0,30.24,SSW,192,2.0,7.0,49,0.00,,,0.00,weatherlink.com 1.10,2013-04-28 19:17:00,
2013-04-28 15:32:00,61.6,44.0,30.24,South,178,3.0,7.0,52,0.00,,,0.00,weatherlink.com 1.10,2013-04-28 19:32:00,
2013-04-28 15:47:00,61.3,44.0,30.23,South,180,0.0,4.0,54,0.00,,,0.00,weatherlink.com 1.10,2013-04-28 19:47:00,
2013-04-28 16:02:00,61.0,45.0,30.22,SSE,157,1.0,5.0,56,0.00,,,0.00,weatherlink.com 1.10,2013-04-28 20:02:00,
2013-04-28 16:17:00,60.9,44.0,30.21,South,175,2.0,6.0,55,0.00,,,0.00,weatherlink.com 1.10,2013-04-28 20:17:00,
2013-04-28 16:32:00,61.0,46.0,30.20,South,189,4.0,4.0,58,0.00,,,0.00,weatherlink.com 1.10,2013-04-28 20:32:00,
2013-04-28 16:47:00,61.2,45.0,30.20,SSW,196,0.0,3.0,56,0.00,,,0.00,weatherlink.com 1.10,2013-04-28 20:47:00,
2013-04-28 17:02:00,61.3,45.0,30.19,South,179,0.0,3.0,55,0.00,,,0.00,weatherlink.com 1.10,2013-04-28 21:02:00,
2013-04-28 17:17:00,61.4,43.0,30.19,SSW,200,0.0,4.0,52,0.00,,,0.00,weatherlink.com 1.10,2013-04-28 21:17:00,
2013-04-28 17:32:00,61.3,43.0,30.20,South,169,1.0,4.0,52,0.00,,,0.00,weatherlink.com 1.10,2013-04-28 21:32:00,
2013-04-28 17:47:00,61.1,43.0,30.19,South,190,0.0,3.0,52,0.00,,,0.00,weatherlink.com 1.10,2013-04-28 21:47:00,
2013-04-28 18:02:00,61.1,45.0,30.18,ESE,122,1.0,4.0,55,0.00,,,0.00,weatherlink.com 1.10,2013-04-28 22:02:00,
2013-04-28 18:17:00,60.9,44.0,30.18,SE,124,0.0,3.0,54,0.00,,,0.00,weatherlink.com 1.10,2013-04-28 22:17:00,
2013-04-28 18:32:00,60.7,44.0,30.17,SE,132,0.0,2.0,54,0.00,,,0.00,weatherlink.com 1.10,2013-04-28 22:32:00,
2013-04-28 18:47:00,60.6,43.0,30.17,SSE,167,0.0,4.0,52,0.00,,,0.00,weatherlink.com 1.10,2013-04-28 22:47:00,
2013-04-28 19:02:00,60.5,39.0,30.17,South,172,0.0,3.0,46,0.00,,,0.00,weatherlink.com 1.10,2013-04-28 23:02:00,
2013-04-28 19:17:00,60.3,40.0,30.16,SSE,150,0.0,3.0,48,0.00,,,0.00,weatherlink.com 1.10,2013-04-28 23:17:00,
2013-04-28 19:32:00,60.2,41.0,30.17,South,187,0.0,4.0,49,0.00,,,0.00,weatherlink.com 1.10,2013-04-28 23:32:00,
2013-04-28 19:47:00,60.0,41.0,30.16,SSE,167,0.0,4.0,50,0.00,,,0.00,weatherlink.com 1.10,2013-04-28 23:47:00,
2013-04-28 20:02:00,59.8,41.0,30.17,SSE,150,1.0,4.0,50,0.00,,,0.00,weatherlink.com 1.10,2013-04-29 00:02:00,
2013-04-28 20:17:00,59.8,39.0,30.17,ESE,108,3.0,4.0,47,0.00,,,0.00,weatherlink.com 1.10,2013-04-29 00:17:00,
2013-04-28 20:32:00,59.6,39.0,30.17,SSW,196,0.0,4.0,47,0.00,,,0.00,weatherlink.com 1.10,2013-04-29 00:32:00,
2013-04-28 20:47:00,59.5,40.0,30.17,ESE,110,1.0,4.0,49,0.00,,,0.00,weatherlink.com 1.10,2013-04-29 00:47:00,
2013-04-28 21:02:00,59.2,38.0,30.18,East,90,1.0,3.0,46,0.00,,,0.00,weatherlink.com 1.10,2013-04-29 01:02:00,
2013-04-28 21:17:00,58.9,39.0,30.19,SSE,148,1.0,4.0,48,0.00,,,0.00,weatherlink.com 1.10,2013-04-29 01:17:00,
2013-04-28 21:32:00,58.9,40.0,30.19,ESE,119,2.0,4.0,49,0.00,,,0.00,weatherlink.com 1.10,2013-04-29 01:32:00,
2013-04-28 21:47:00,58.7,40.0,30.19,ESE,113,1.0,4.0,51,0.00,,,0.00,weatherlink.com 1.10,2013-04-29 01:47:00,
2013-04-28 22:02:00,58.3,38.0,30.19,East,81,0.0,4.0,48,0.00,,,0.00,weatherlink.com 1.10,2013-04-29 02:02:00,
2013-04-28 22:17:00,58.1,41.0,30.19,ESE,103,1.0,5.0,53,0.00,,,0.00,weatherlink.com 1.10,2013-04-29 02:17:00,
2013-04-28 22:32:00,58.0,42.0,30.19,SW,232,0.0,3.0,55,0.00,,,0.00,weatherlink.com 1.10,2013-04-29 02:32:00,
2013-04-28 22:47:00,58.0,42.0,30.19,ESE,110,2.0,4.0,56,0.00,,,0.00,weatherlink.com 1.10,2013-04-29 02:47:00,
2013-04-28 23:02:00,57.9,44.0,30.18,East,96,1.0,3.0,60,0.00,,,0.00,weatherlink.com 1.10,2013-04-29 03:02:00,
2013-04-28 23:17:00,57.3,42.0,30.18,East,92,0.0,2.0,58,0.00,,,0.00,weatherlink.com 1.10,2013-04-29 03:17:00,
2013-04-28 23:32:00,56.9,43.0,30.18,SSE,167,0.0,2.0,60,0.00,,,0.00,weatherlink.com 1.10,2013-04-29 03:32:00,
2013-04-28 23:47:00,56.8,43.0,30.18,SSE,167,0.0,1.0,61,0.00,,,0.00,weatherlink.com 1.10,2013-04-29 03:47:00,